Mansfield, TX (76063)

7:52 AM CST on December 25, 2014 (GMT -0600)
Cest La Vie | Change Station
CLOSE
Current Station
Personal Weather Station
Location: Mansfield, TX
Elevation: 643 ft
Nearby Weather Stations
Active Advisory: Wind Advisory

Elev 643 ft 32.57 °N, 97.17 °W | Updated 13 minutes ago

Clear
Clear
35.4 °F
Feels Like 32 °F
N
4.2
Wind Variable Wind from SE

Today
High -- | Low -- °F
--% Chance of Precip.
Yesterday
High -- | Low -- °F
Precip. -- in
7:28 AM 5:29 PM
Waxing Crescent, 16% visible
Pressure 30.00 in
Visibility 10.0 miles
Clouds Clear
Windchill 32 °F
Dew Point 29 °F
Humidity 76%
Rainfall 0.00 in
Snow Depth Not available.
UV 0 out of 12
Pollen 10.70 out of 12
Air Quality Not available.
Flu Activity Not available.
METAR KGKY 251253Z 17009KT 10SM CLR 03/M03 A3000 RMK AO2 SLP159 T00331028

More Conditions Fewer Conditions

Pressure 30.00 in
Visibility 10.0 miles
Clouds Clear
Windchill 32 °F
Dew Point 29 °F
Humidity 76%
Rainfall 0.00 in
Snow Depth Not available.
UV 0 out of 12
Pollen 10.70 out of 12
Air Quality Not available.
Flu Activity Not available.
METAR KGKY 251253Z 17009KT 10SM CLR 03/M03 A3000 RMK AO2 SLP159 T00331028

More Conditions Fewer Conditions

10-Day Weather Forecast

Almanac

Astronomy

Dec. 25, 2014 Rise Set
Actual Time
Civil Twilight
Nautical Twilight
Astronomical Twilight
Moon
Length of Visible Light
Length of Day
Tomorrow will be .
, % of the Moon is Illuminated

Today's Extremes

State Highs State Lows

Community

WunderPhotos

Upload Photos

1,780,275 photos uploaded!

WunderBlogs® & News

Nearby

Air Quality

  Air Quality AQ Index Pollutant
Not available.

Snow Depth

Station Depth Elevation

Earthquake Activity

City Distance Mag. Time & Date
Minimum magnitude displayed is 2.5.

Coastal Water Temperatures

Place Temperature

Nearby Weather Stations